sensor_id;sensor_type;location;lat;lon;timestamp;P1;durP1;ratioP1;P2;durP2;ratioP2
11771;SDS011;12556;55.748;13.194;2023-04-15T00:02:13;12.33;;;11.03;;
11771;SDS011;12556;55.748;13.194;2023-04-15T00:04:40;14.40;;;12.23;;
11771;SDS011;12556;55.748;13.194;2023-04-15T00:07:07;13.53;;;11.37;;
11771;SDS011;12556;55.748;13.194;2023-04-15T00:09:35;16.17;;;12.63;;
11771;SDS011;12556;55.748;13.194;2023-04-15T00:12:02;16.03;;;12.00;;
11771;SDS011;12556;55.748;13.194;2023-04-15T00:14:30;15.10;;;12.87;;
11771;SDS011;12556;55.748;13.194;2023-04-15T00:16:56;17.63;;;12.10;;
11771;SDS011;12556;55.748;13.194;2023-04-15T00:19:23;14.20;;;12.00;;
11771;SDS011;12556;55.748;13.194;2023-04-15T00:21:50;16.13;;;13.17;;
11771;SDS011;12556;55.748;13.194;2023-04-15T00:24:17;19.47;;;15.10;;
11771;SDS011;12556;55.748;13.194;2023-04-15T00:26:45;28.20;;;21.00;;
11771;SDS011;12556;55.748;13.194;2023-04-15T00:29:13;35.83;;;26.07;;
11771;SDS011;12556;55.748;13.194;2023-04-15T00:31:40;37.37;;;24.83;;
11771;SDS011;12556;55.748;13.194;2023-04-15T00:34:07;31.73;;;23.47;;
11771;SDS011;12556;55.748;13.194;2023-04-15T00:36:34;27.67;;;21.10;;
11771;SDS011;12556;55.748;13.194;2023-04-15T00:39:01;23.23;;;19.13;;
11771;SDS011;12556;55.748;13.194;2023-04-15T00:41:29;19.13;;;15.90;;
11771;SDS011;12556;55.748;13.194;2023-04-15T00:43:59;16.67;;;14.50;;
11771;SDS011;12556;55.748;13.194;2023-04-15T00:46:27;15.93;;;14.17;;
11771;SDS011;12556;55.748;13.194;2023-04-15T00:48:55;16.00;;;13.50;;
11771;SDS011;12556;55.748;13.194;2023-04-15T00:51:22;17.60;;;14.60;;
11771;SDS011;12556;55.748;13.194;2023-04-15T00:53:49;15.77;;;14.00;;
11771;SDS011;12556;55.748;13.194;2023-04-15T00:56:17;16.43;;;13.97;;
11771;SDS011;12556;55.748;13.194;2023-04-15T00:58:45;18.63;;;15.40;;
11771;SDS011;12556;55.748;13.194;2023-04-15T01:01:14;19.03;;;16.20;;
11771;SDS011;12556;55.748;13.194;2023-04-15T01:03:42;17.13;;;15.33;;
11771;SDS011;12556;55.748;13.194;2023-04-15T01:06:09;20.50;;;15.70;;
11771;SDS011;12556;55.748;13.194;2023-04-15T01:08:36;16.77;;;15.07;;
11771;SDS011;12556;55.748;13.194;2023-04-15T01:11:03;19.93;;;15.80;;
11771;SDS011;12556;55.748;13.194;2023-04-15T01:13:31;21.17;;;15.33;;
11771;SDS011;12556;55.748;13.194;2023-04-15T01:15:59;18.27;;;15.30;;
11771;SDS011;12556;55.748;13.194;2023-04-15T01:18:28;18.33;;;14.70;;
11771;SDS011;12556;55.748;13.194;2023-04-15T01:20:55;14.97;;;13.27;;
11771;SDS011;12556;55.748;13.194;2023-04-15T01:23:22;14.73;;;13.23;;
11771;SDS011;12556;55.748;13.194;2023-04-15T01:25:50;17.77;;;13.37;;
11771;SDS011;12556;55.748;13.194;2023-04-15T01:28:18;16.13;;;14.50;;
11771;SDS011;12556;55.748;13.194;2023-04-15T01:30:45;16.43;;;14.20;;
11771;SDS011;12556;55.748;13.194;2023-04-15T01:33:12;19.87;;;16.80;;
11771;SDS011;12556;55.748;13.194;2023-04-15T01:35:40;18.90;;;16.77;;
11771;SDS011;12556;55.748;13.194;2023-04-15T01:38:08;19.57;;;16.53;;
11771;SDS011;12556;55.748;13.194;2023-04-15T01:40:36;19.77;;;15.43;;
11771;SDS011;12556;55.748;13.194;2023-04-15T01:43:04;17.47;;;14.97;;
11771;SDS011;12556;55.748;13.194;2023-04-15T01:45:31;19.53;;;15.10;;
11771;SDS011;12556;55.748;13.194;2023-04-15T01:47:58;17.13;;;15.17;;
11771;SDS011;12556;55.748;13.194;2023-04-15T01:50:25;18.80;;;14.80;;
11771;SDS011;12556;55.748;13.194;2023-04-15T01:52:52;17.43;;;14.60;;
11771;SDS011;12556;55.748;13.194;2023-04-15T01:55:19;16.13;;;14.43;;
11771;SDS011;12556;55.748;13.194;2023-04-15T01:57:46;16.53;;;14.57;;
11771;SDS011;12556;55.748;13.194;2023-04-15T02:00:14;19.13;;;14.40;;
11771;SDS011;12556;55.748;13.194;2023-04-15T02:02:41;16.33;;;14.60;;
11771;SDS011;12556;55.748;13.194;2023-04-15T02:05:08;17.00;;;14.23;;
11771;SDS011;12556;55.748;13.194;2023-04-15T02:07:36;17.67;;;13.90;;
11771;SDS011;12556;55.748;13.194;2023-04-15T02:10:03;18.80;;;15.43;;
11771;SDS011;12556;55.748;13.194;2023-04-15T02:12:30;17.43;;;14.30;;
11771;SDS011;12556;55.748;13.194;2023-04-15T02:14:57;19.23;;;14.77;;
11771;SDS011;12556;55.748;13.194;2023-04-15T02:17:25;18.07;;;15.17;;
11771;SDS011;12556;55.748;13.194;2023-04-15T02:19:52;17.87;;;14.90;;
11771;SDS011;12556;55.748;13.194;2023-04-15T02:22:21;17.40;;;14.33;;
11771;SDS011;12556;55.748;13.194;2023-04-15T02:24:48;21.77;;;15.97;;
11771;SDS011;12556;55.748;13.194;2023-04-15T02:27:15;16.87;;;14.83;;
11771;SDS011;12556;55.748;13.194;2023-04-15T02:29:42;19.97;;;15.63;;
11771;SDS011;12556;55.748;13.194;2023-04-15T02:32:09;17.43;;;14.87;;
11771;SDS011;12556;55.748;13.194;2023-04-15T02:34:38;19.87;;;15.57;;
11771;SDS011;12556;55.748;13.194;2023-04-15T02:37:07;19.57;;;15.10;;
11771;SDS011;12556;55.748;13.194;2023-04-15T02:39:33;22.37;;;15.83;;
11771;SDS011;12556;55.748;13.194;2023-04-15T02:42:00;19.77;;;15.40;;
11771;SDS011;12556;55.748;13.194;2023-04-15T02:44:27;19.60;;;15.90;;
11771;SDS011;12556;55.748;13.194;2023-04-15T02:46:55;23.27;;;16.03;;
11771;SDS011;12556;55.748;13.194;2023-04-15T02:49:22;18.33;;;14.93;;
11771;SDS011;12556;55.748;13.194;2023-04-15T02:51:51;18.07;;;16.07;;
11771;SDS011;12556;55.748;13.194;2023-04-15T02:54:18;19.90;;;15.90;;
11771;SDS011;12556;55.748;13.194;2023-04-15T02:56:46;17.97;;;15.43;;
11771;SDS011;12556;55.748;13.194;2023-04-15T02:59:14;22.97;;;17.23;;
11771;SDS011;12556;55.748;13.194;2023-04-15T03:01:40;20.30;;;16.57;;
11771;SDS011;12556;55.748;13.194;2023-04-15T03:04:07;17.47;;;15.47;;
11771;SDS011;12556;55.748;13.194;2023-04-15T03:06:34;24.17;;;16.70;;
11771;SDS011;12556;55.748;13.194;2023-04-15T03:09:03;21.83;;;16.07;;
11771;SDS011;12556;55.748;13.194;2023-04-15T03:11:30;20.07;;;16.30;;
11771;SDS011;12556;55.748;13.194;2023-04-15T03:13:57;21.47;;;16.40;;
11771;SDS011;12556;55.748;13.194;2023-04-15T03:16:24;18.50;;;15.80;;
11771;SDS011;12556;55.748;13.194;2023-04-15T03:18:51;19.33;;;16.97;;
11771;SDS011;12556;55.748;13.194;2023-04-15T03:21:18;20.43;;;17.43;;
11771;SDS011;12556;55.748;13.194;2023-04-15T03:23:45;21.10;;;17.13;;
11771;SDS011;12556;55.748;13.194;2023-04-15T03:26:24;19.60;;;16.97;;
11771;SDS011;12556;55.748;13.194;2023-04-15T03:28:52;19.27;;;16.37;;
11771;SDS011;12556;55.748;13.194;2023-04-15T03:31:19;19.03;;;16.73;;
11771;SDS011;12556;55.748;13.194;2023-04-15T03:33:46;23.20;;;16.93;;
11771;SDS011;12556;55.748;13.194;2023-04-15T03:36:13;23.97;;;17.70;;
11771;SDS011;12556;55.748;13.194;2023-04-15T03:38:40;24.80;;;18.33;;
11771;SDS011;12556;55.748;13.194;2023-04-15T03:41:07;21.50;;;17.90;;
11771;SDS011;12556;55.748;13.194;2023-04-15T03:43:35;22.53;;;17.90;;
11771;SDS011;12556;55.748;13.194;2023-04-15T03:46:02;23.57;;;18.13;;
11771;SDS011;12556;55.748;13.194;2023-04-15T03:48:29;24.27;;;20.00;;
11771;SDS011;12556;55.748;13.194;2023-04-15T03:50:56;24.80;;;18.37;;
11771;SDS011;12556;55.748;13.194;2023-04-15T03:53:23;24.70;;;19.43;;
11771;SDS011;12556;55.748;13.194;2023-04-15T03:55:49;23.97;;;19.30;;
11771;SDS011;12556;55.748;13.194;2023-04-15T03:58:16;21.43;;;19.13;;
11771;SDS011;12556;55.748;13.194;2023-04-15T04:00:44;24.67;;;19.73;;
11771;SDS011;12556;55.748;13.194;2023-04-15T04:03:11;25.87;;;20.63;;
11771;SDS011;12556;55.748;13.194;2023-04-15T04:05:38;25.93;;;19.43;;
11771;SDS011;12556;55.748;13.194;2023-04-15T04:08:06;23.80;;;19.33;;
11771;SDS011;12556;55.748;13.194;2023-04-15T04:10:33;25.40;;;19.83;;
11771;SDS011;12556;55.748;13.194;2023-04-15T04:13:00;24.93;;;19.83;;
11771;SDS011;12556;55.748;13.194;2023-04-15T04:15:27;23.10;;;18.97;;
11771;SDS011;12556;55.748;13.194;2023-04-15T04:17:55;26.03;;;20.13;;
11771;SDS011;12556;55.748;13.194;2023-04-15T04:20:22;24.30;;;20.03;;
11771;SDS011;12556;55.748;13.194;2023-04-15T04:22:49;27.20;;;21.97;;
11771;SDS011;12556;55.748;13.194;2023-04-15T04:25:16;28.53;;;21.50;;
11771;SDS011;12556;55.748;13.194;2023-04-15T04:27:43;23.97;;;20.53;;
11771;SDS011;12556;55.748;13.194;2023-04-15T04:30:10;25.77;;;20.23;;
11771;SDS011;12556;55.748;13.194;2023-04-15T04:32:37;24.23;;;21.20;;
11771;SDS011;12556;55.748;13.194;2023-04-15T04:35:06;27.43;;;21.97;;
11771;SDS011;12556;55.748;13.194;2023-04-15T04:37:34;24.27;;;21.13;;
11771;SDS011;12556;55.748;13.194;2023-04-15T04:40:01;28.17;;;22.13;;
11771;SDS011;12556;55.748;13.194;2023-04-15T04:42:28;26.67;;;21.57;;
11771;SDS011;12556;55.748;13.194;2023-04-15T04:44:55;26.00;;;21.00;;
11771;SDS011;12556;55.748;13.194;2023-04-15T04:47:22;26.10;;;21.30;;
11771;SDS011;12556;55.748;13.194;2023-04-15T04:49:49;27.27;;;21.60;;
11771;SDS011;12556;55.748;13.194;2023-04-15T04:52:17;26.57;;;21.13;;
11771;SDS011;12556;55.748;13.194;2023-04-15T04:54:44;27.00;;;21.50;;
11771;SDS011;12556;55.748;13.194;2023-04-15T04:57:11;25.60;;;20.53;;
11771;SDS011;12556;55.748;13.194;2023-04-15T04:59:38;26.97;;;21.07;;
11771;SDS011;12556;55.748;13.194;2023-04-15T05:02:06;26.13;;;21.30;;
11771;SDS011;12556;55.748;13.194;2023-04-15T05:04:32;29.47;;;22.20;;
11771;SDS011;12556;55.748;13.194;2023-04-15T05:06:59;24.63;;;21.60;;
11771;SDS011;12556;55.748;13.194;2023-04-15T05:09:28;29.17;;;22.33;;
11771;SDS011;12556;55.748;13.194;2023-04-15T05:11:56;25.07;;;20.23;;
11771;SDS011;12556;55.748;13.194;2023-04-15T05:14:23;26.07;;;21.30;;
11771;SDS011;12556;55.748;13.194;2023-04-15T05:16:50;28.10;;;20.60;;
11771;SDS011;12556;55.748;13.194;2023-04-15T05:19:17;25.13;;;20.80;;
11771;SDS011;12556;55.748;13.194;2023-04-15T05:21:44;26.70;;;20.80;;
11771;SDS011;12556;55.748;13.194;2023-04-15T05:24:11;25.27;;;19.83;;
11771;SDS011;12556;55.748;13.194;2023-04-15T05:26:39;25.70;;;21.53;;
11771;SDS011;12556;55.748;13.194;2023-04-15T05:29:06;27.17;;;19.97;;
11771;SDS011;12556;55.748;13.194;2023-04-15T05:31:33;21.80;;;19.37;;
11771;SDS011;12556;55.748;13.194;2023-04-15T05:34:00;23.40;;;19.23;;
11771;SDS011;12556;55.748;13.194;2023-04-15T05:36:27;22.73;;;20.20;;
11771;SDS011;12556;55.748;13.194;2023-04-15T05:38:55;25.07;;;20.10;;
11771;SDS011;12556;55.748;13.194;2023-04-15T05:41:22;20.87;;;18.07;;
11771;SDS011;12556;55.748;13.194;2023-04-15T05:43:50;21.03;;;18.13;;
11771;SDS011;12556;55.748;13.194;2023-04-15T05:46:17;21.97;;;18.20;;
11771;SDS011;12556;55.748;13.194;2023-04-15T05:48:44;24.27;;;19.70;;
11771;SDS011;12556;55.748;13.194;2023-04-15T05:51:11;23.23;;;18.87;;
11771;SDS011;12556;55.748;13.194;2023-04-15T05:53:38;23.17;;;18.97;;
11771;SDS011;12556;55.748;13.194;2023-04-15T05:56:05;22.23;;;18.30;;
11771;SDS011;12556;55.748;13.194;2023-04-15T05:58:32;21.77;;;17.63;;
11771;SDS011;12556;55.748;13.194;2023-04-15T06:01:01;21.63;;;17.90;;
11771;SDS011;12556;55.748;13.194;2023-04-15T06:03:28;21.90;;;17.50;;
11771;SDS011;12556;55.748;13.194;2023-04-15T06:05:55;22.30;;;18.70;;
11771;SDS011;12556;55.748;13.194;2023-04-15T06:08:22;21.90;;;17.47;;
11771;SDS011;12556;55.748;13.194;2023-04-15T06:10:49;23.03;;;17.50;;
11771;SDS011;12556;55.748;13.194;2023-04-15T06:13:16;25.27;;;19.57;;
11771;SDS011;12556;55.748;13.194;2023-04-15T06:15:42;23.50;;;18.43;;
11771;SDS011;12556;55.748;13.194;2023-04-15T06:18:11;21.60;;;18.63;;
11771;SDS011;12556;55.748;13.194;2023-04-15T06:20:38;20.20;;;18.00;;
11771;SDS011;12556;55.748;13.194;2023-04-15T06:23:05;20.27;;;17.07;;
11771;SDS011;12556;55.748;13.194;2023-04-15T06:25:32;23.70;;;18.33;;
11771;SDS011;12556;55.748;13.194;2023-04-15T06:27:59;18.53;;;16.30;;
11771;SDS011;12556;55.748;13.194;2023-04-15T06:30:26;20.70;;;17.53;;
11771;SDS011;12556;55.748;13.194;2023-04-15T06:32:54;23.40;;;17.33;;
11771;SDS011;12556;55.748;13.194;2023-04-15T06:35:22;24.30;;;17.50;;
11771;SDS011;12556;55.748;13.194;2023-04-15T06:37:49;18.73;;;15.40;;
11771;SDS011;12556;55.748;13.194;2023-04-15T06:40:15;20.03;;;16.83;;
11771;SDS011;12556;55.748;13.194;2023-04-15T06:42:43;18.67;;;16.67;;
11771;SDS011;12556;55.748;13.194;2023-04-15T06:45:10;21.43;;;17.00;;
11771;SDS011;12556;55.748;13.194;2023-04-15T06:47:37;18.43;;;16.23;;
11771;SDS011;12556;55.748;13.194;2023-04-15T06:50:05;18.60;;;16.60;;
11771;SDS011;12556;55.748;13.194;2023-04-15T06:52:34;19.53;;;16.37;;
11771;SDS011;12556;55.748;13.194;2023-04-15T06:55:01;19.53;;;15.10;;
11771;SDS011;12556;55.748;13.194;2023-04-15T06:57:29;17.43;;;14.93;;
11771;SDS011;12556;55.748;13.194;2023-04-15T06:59:56;16.87;;;15.07;;
11771;SDS011;12556;55.748;13.194;2023-04-15T07:02:23;19.03;;;14.50;;
11771;SDS011;12556;55.748;13.194;2023-04-15T07:04:50;16.10;;;13.87;;
11771;SDS011;12556;55.748;13.194;2023-04-15T07:07:16;18.33;;;16.07;;
11771;SDS011;12556;55.748;13.194;2023-04-15T07:09:45;17.63;;;14.93;;
11771;SDS011;12556;55.748;13.194;2023-04-15T07:12:11;15.97;;;14.30;;
11771;SDS011;12556;55.748;13.194;2023-04-15T07:14:38;16.10;;;14.33;;
11771;SDS011;12556;55.748;13.194;2023-04-15T07:17:05;16.67;;;13.90;;
11771;SDS011;12556;55.748;13.194;2023-04-15T07:19:32;16.73;;;14.93;;
11771;SDS011;12556;55.748;13.194;2023-04-15T07:22:00;15.83;;;13.90;;
11771;SDS011;12556;55.748;13.194;2023-04-15T07:24:26;15.13;;;13.37;;
11771;SDS011;12556;55.748;13.194;2023-04-15T07:26:55;15.20;;;13.50;;
11771;SDS011;12556;55.748;13.194;2023-04-15T07:29:23;15.07;;;13.50;;
11771;SDS011;12556;55.748;13.194;2023-04-15T07:31:50;17.13;;;13.93;;
11771;SDS011;12556;55.748;13.194;2023-04-15T07:34:17;16.53;;;13.57;;
11771;SDS011;12556;55.748;13.194;2023-04-15T07:36:44;14.17;;;12.57;;
11771;SDS011;12556;55.748;13.194;2023-04-15T07:39:14;14.63;;;13.07;;
11771;SDS011;12556;55.748;13.194;2023-04-15T07:41:41;15.17;;;12.20;;
11771;SDS011;12556;55.748;13.194;2023-04-15T07:44:09;13.37;;;11.90;;
11771;SDS011;12556;55.748;13.194;2023-04-15T07:46:37;17.83;;;12.17;;
11771;SDS011;12556;55.748;13.194;2023-04-15T07:49:04;13.73;;;11.90;;
11771;SDS011;12556;55.748;13.194;2023-04-15T07:51:31;15.33;;;12.47;;
11771;SDS011;12556;55.748;13.194;2023-04-15T07:53:58;13.37;;;11.70;;
11771;SDS011;12556;55.748;13.194;2023-04-15T07:56:25;14.70;;;11.77;;
11771;SDS011;12556;55.748;13.194;2023-04-15T07:58:52;15.57;;;12.13;;
11771;SDS011;12556;55.748;13.194;2023-04-15T08:01:20;14.17;;;11.47;;
11771;SDS011;12556;55.748;13.194;2023-04-15T08:03:47;13.20;;;11.80;;
11771;SDS011;12556;55.748;13.194;2023-04-15T08:06:14;14.53;;;11.83;;
11771;SDS011;12556;55.748;13.194;2023-04-15T08:08:40;13.77;;;12.37;;
11771;SDS011;12556;55.748;13.194;2023-04-15T08:11:08;13.63;;;11.83;;
11771;SDS011;12556;55.748;13.194;2023-04-15T08:13:35;12.60;;;11.13;;
11771;SDS011;12556;55.748;13.194;2023-04-15T08:16:12;14.70;;;11.10;;
11771;SDS011;12556;55.748;13.194;2023-04-15T08:18:43;13.03;;;11.73;;
11771;SDS011;12556;55.748;13.194;2023-04-15T08:21:09;13.43;;;12.07;;
11771;SDS011;12556;55.748;13.194;2023-04-15T08:23:37;13.60;;;11.70;;
11771;SDS011;12556;55.748;13.194;2023-04-15T08:26:04;16.57;;;11.87;;
11771;SDS011;12556;55.748;13.194;2023-04-15T08:28:31;12.97;;;11.37;;
11771;SDS011;12556;55.748;13.194;2023-04-15T08:30:58;12.73;;;11.33;;
11771;SDS011;12556;55.748;13.194;2023-04-15T08:33:25;12.00;;;10.50;;
11771;SDS011;12556;55.748;13.194;2023-04-15T08:35:54;12.50;;;11.13;;
11771;SDS011;12556;55.748;13.194;2023-04-15T08:38:21;12.80;;;10.97;;
11771;SDS011;12556;55.748;13.194;2023-04-15T08:40:48;12.33;;;11.03;;
11771;SDS011;12556;55.748;13.194;2023-04-15T08:43:17;11.83;;;10.63;;
11771;SDS011;12556;55.748;13.194;2023-04-15T08:45:48;14.83;;;10.63;;
11771;SDS011;12556;55.748;13.194;2023-04-15T08:48:16;15.33;;;10.70;;
11771;SDS011;12556;55.748;13.194;2023-04-15T08:50:44;13.30;;;11.90;;
11771;SDS011;12556;55.748;13.194;2023-04-15T08:53:13;11.93;;;10.73;;
11771;SDS011;12556;55.748;13.194;2023-04-15T08:55:41;11.73;;;10.50;;
11771;SDS011;12556;55.748;13.194;2023-04-15T08:58:10;13.27;;;11.87;;
11771;SDS011;12556;55.748;13.194;2023-04-15T09:00:38;12.13;;;10.30;;
11771;SDS011;12556;55.748;13.194;2023-04-15T09:03:06;12.97;;;10.63;;
11771;SDS011;12556;55.748;13.194;2023-04-15T09:05:34;11.77;;;9.93;;
11771;SDS011;12556;55.748;13.194;2023-04-15T09:08:01;13.07;;;10.07;;
11771;SDS011;12556;55.748;13.194;2023-04-15T09:10:30;13.60;;;10.43;;
11771;SDS011;12556;55.748;13.194;2023-04-15T09:12:58;12.30;;;11.10;;
11771;SDS011;12556;55.748;13.194;2023-04-15T09:15:26;13.47;;;11.30;;
11771;SDS011;12556;55.748;13.194;2023-04-15T09:17:54;13.43;;;11.33;;
11771;SDS011;12556;55.748;13.194;2023-04-15T09:20:21;11.53;;;10.40;;
11771;SDS011;12556;55.748;13.194;2023-04-15T09:22:49;13.03;;;11.73;;
11771;SDS011;12556;55.748;13.194;2023-04-15T09:28:03;12.73;;;11.10;;
11771;SDS011;12556;55.748;13.194;2023-04-15T09:30:30;14.37;;;11.87;;
11771;SDS011;12556;55.748;13.194;2023-04-15T09:32:58;12.43;;;11.13;;
11771;SDS011;12556;55.748;13.194;2023-04-15T09:35:26;12.27;;;10.97;;
11771;SDS011;12556;55.748;13.194;2023-04-15T09:38:00;12.37;;;11.17;;
11771;SDS011;12556;55.748;13.194;2023-04-15T09:40:32;12.00;;;10.53;;
11771;SDS011;12556;55.748;13.194;2023-04-15T09:43:02;13.03;;;11.43;;
11771;SDS011;12556;55.748;13.194;2023-04-15T09:45:29;12.70;;;11.27;;
11771;SDS011;12556;55.748;13.194;2023-04-15T09:47:56;12.07;;;10.77;;
11771;SDS011;12556;55.748;13.194;2023-04-15T09:50:26;11.40;;;10.30;;
11771;SDS011;12556;55.748;13.194;2023-04-15T09:52:54;12.73;;;11.43;;
11771;SDS011;12556;55.748;13.194;2023-04-15T09:55:21;14.20;;;11.10;;
11771;SDS011;12556;55.748;13.194;2023-04-15T09:57:48;14.00;;;12.53;;
11771;SDS011;12556;55.748;13.194;2023-04-15T10:00:16;12.68;;;11.38;;
11771;SDS011;12556;55.748;13.194;2023-04-15T10:02:43;13.27;;;11.53;;
11771;SDS011;12556;55.748;13.194;2023-04-15T10:05:13;12.83;;;11.27;;
11771;SDS011;12556;55.748;13.194;2023-04-15T10:07:41;13.00;;;11.20;;
11771;SDS011;12556;55.748;13.194;2023-04-15T10:10:10;13.73;;;11.83;;
11771;SDS011;12556;55.748;13.194;2023-04-15T10:12:39;15.47;;;12.50;;
11771;SDS011;12556;55.748;13.194;2023-04-15T10:15:08;13.93;;;11.70;;
11771;SDS011;12556;55.748;13.194;2023-04-15T10:17:41;17.60;;;12.43;;
11771;SDS011;12556;55.748;13.194;2023-04-15T10:20:10;13.73;;;11.43;;
11771;SDS011;12556;55.748;13.194;2023-04-15T10:22:39;12.27;;;11.00;;
11771;SDS011;12556;55.748;13.194;2023-04-15T10:25:07;13.37;;;11.37;;
11771;SDS011;12556;55.748;13.194;2023-04-15T10:27:36;13.87;;;12.33;;
11771;SDS011;12556;55.748;13.194;2023-04-15T10:30:05;17.40;;;11.77;;
11771;SDS011;12556;55.748;13.194;2023-04-15T10:32:33;14.90;;;11.85;;
11771;SDS011;12556;55.748;13.194;2023-04-15T10:35:01;13.57;;;12.17;;
11771;SDS011;12556;55.748;13.194;2023-04-15T10:37:32;14.05;;;12.45;;
11771;SDS011;12556;55.748;13.194;2023-04-15T10:40:10;13.80;;;12.00;;
11771;SDS011;12556;55.748;13.194;2023-04-15T10:42:51;13.05;;;11.45;;
11771;SDS011;12556;55.748;13.194;2023-04-15T10:45:18;14.13;;;11.95;;
11771;SDS011;12556;55.748;13.194;2023-04-15T10:47:50;13.60;;;11.10;;
11771;SDS011;12556;55.748;13.194;2023-04-15T10:50:19;13.23;;;11.80;;
11771;SDS011;12556;55.748;13.194;2023-04-15T10:52:49;16.08;;;11.73;;
11771;SDS011;12556;55.748;13.194;2023-04-15T10:55:18;13.23;;;10.90;;
11771;SDS011;12556;55.748;13.194;2023-04-15T10:57:46;12.32;;;10.93;;
11771;SDS011;12556;55.748;13.194;2023-04-15T11:00:18;15.45;;;11.85;;
11771;SDS011;12556;55.748;13.194;2023-04-15T11:02:46;12.85;;;11.35;;
11771;SDS011;12556;55.748;13.194;2023-04-15T11:05:17;12.45;;;11.23;;
11771;SDS011;12556;55.748;13.194;2023-04-15T11:07:49;16.60;;;11.00;;
11771;SDS011;12556;55.748;13.194;2023-04-15T11:13:19;13.73;;;10.75;;
11771;SDS011;12556;55.748;13.194;2023-04-15T11:15:49;11.18;;;9.90;;
11771;SDS011;12556;55.748;13.194;2023-04-15T11:18:16;12.00;;;10.88;;
11771;SDS011;12556;55.748;13.194;2023-04-15T11:20:47;11.60;;;10.40;;
11771;SDS011;12556;55.748;13.194;2023-04-15T11:23:17;13.38;;;10.32;;
11771;SDS011;12556;55.748;13.194;2023-04-15T11:25:45;12.05;;;10.35;;
11771;SDS011;12556;55.748;13.194;2023-04-15T11:28:12;11.60;;;10.40;;
11771;SDS011;12556;55.748;13.194;2023-04-15T11:30:39;14.18;;;10.88;;
11771;SDS011;12556;55.748;13.194;2023-04-15T11:33:07;13.07;;;10.43;;
11771;SDS011;12556;55.748;13.194;2023-04-15T11:35:36;11.38;;;10.20;;
11771;SDS011;12556;55.748;13.194;2023-04-15T11:38:09;12.03;;;10.47;;
11771;SDS011;12556;55.748;13.194;2023-04-15T11:40:40;14.55;;;10.70;;
11771;SDS011;12556;55.748;13.194;2023-04-15T11:43:08;9.90;;;8.90;;
11771;SDS011;12556;55.748;13.194;2023-04-15T11:45:36;11.20;;;10.00;;
11771;SDS011;12556;55.748;13.194;2023-04-15T11:48:04;10.68;;;9.57;;
11771;SDS011;12556;55.748;13.194;2023-04-15T11:50:32;12.75;;;10.02;;
11771;SDS011;12556;55.748;13.194;2023-04-15T11:53:00;11.40;;;10.18;;
11771;SDS011;12556;55.748;13.194;2023-04-15T11:55:28;13.33;;;10.23;;
11771;SDS011;12556;55.748;13.194;2023-04-15T11:58:06;12.70;;;9.67;;
11771;SDS011;12556;55.748;13.194;2023-04-15T12:00:35;13.67;;;9.40;;
11771;SDS011;12556;55.748;13.194;2023-04-15T12:03:16;10.60;;;9.50;;
11771;SDS011;12556;55.748;13.194;2023-04-15T12:06:04;13.20;;;9.57;;
11771;SDS011;12556;55.748;13.194;2023-04-15T12:08:48;11.10;;;9.07;;
11771;SDS011;12556;55.748;13.194;2023-04-15T12:11:26;10.63;;;9.53;;
11771;SDS011;12556;55.748;13.194;2023-04-15T12:13:56;12.27;;;9.07;;
11771;SDS011;12556;55.748;13.194;2023-04-15T12:16:24;12.53;;;9.07;;
11771;SDS011;12556;55.748;13.194;2023-04-15T12:18:53;12.80;;;9.23;;
11771;SDS011;12556;55.748;13.194;2023-04-15T12:21:22;13.00;;;10.20;;
11771;SDS011;12556;55.748;13.194;2023-04-15T12:23:50;10.20;;;8.27;;
11771;SDS011;12556;55.748;13.194;2023-04-15T12:26:18;15.87;;;9.70;;
11771;SDS011;12556;55.748;13.194;2023-04-15T12:28:52;10.27;;;8.80;;
11771;SDS011;12556;55.748;13.194;2023-04-15T12:31:21;12.90;;;9.07;;
11771;SDS011;12556;55.748;13.194;2023-04-15T12:33:48;10.10;;;9.10;;
11771;SDS011;12556;55.748;13.194;2023-04-15T12:36:15;12.20;;;9.50;;
11771;SDS011;12556;55.748;13.194;2023-04-15T12:38:42;11.70;;;10.20;;
11771;SDS011;12556;55.748;13.194;2023-04-15T12:41:09;11.93;;;9.47;;
11771;SDS011;12556;55.748;13.194;2023-04-15T12:43:36;11.87;;;9.77;;
11771;SDS011;12556;55.748;13.194;2023-04-15T12:46:03;10.27;;;9.20;;
11771;SDS011;12556;55.748;13.194;2023-04-15T12:48:32;10.90;;;9.77;;
11771;SDS011;12556;55.748;13.194;2023-04-15T12:50:59;10.87;;;9.77;;
11771;SDS011;12556;55.748;13.194;2023-04-15T12:53:26;11.17;;;9.13;;
11771;SDS011;12556;55.748;13.194;2023-04-15T12:55:53;12.57;;;9.17;;
11771;SDS011;12556;55.748;13.194;2023-04-15T12:58:20;13.67;;;9.30;;
11771;SDS011;12556;55.748;13.194;2023-04-15T13:00:47;10.60;;;9.57;;
11771;SDS011;12556;55.748;13.194;2023-04-15T13:03:14;14.73;;;10.43;;
11771;SDS011;12556;55.748;13.194;2023-04-15T13:05:43;10.97;;;9.87;;
11771;SDS011;12556;55.748;13.194;2023-04-15T13:08:10;12.50;;;10.30;;
11771;SDS011;12556;55.748;13.194;2023-04-15T13:10:37;16.20;;;9.90;;
11771;SDS011;12556;55.748;13.194;2023-04-15T13:13:04;11.47;;;10.23;;
11771;SDS011;12556;55.748;13.194;2023-04-15T13:15:31;11.10;;;9.90;;
11771;SDS011;12556;55.748;13.194;2023-04-15T13:17:58;10.93;;;9.43;;
11771;SDS011;12556;55.748;13.194;2023-04-15T13:20:25;12.70;;;10.33;;
11771;SDS011;12556;55.748;13.194;2023-04-15T13:22:53;12.13;;;10.43;;
11771;SDS011;12556;55.748;13.194;2023-04-15T13:25:20;17.77;;;9.67;;
11771;SDS011;12556;55.748;13.194;2023-04-15T13:27:49;10.33;;;9.27;;
11771;SDS011;12556;55.748;13.194;2023-04-15T13:30:15;10.33;;;9.33;;
11771;SDS011;12556;55.748;13.194;2023-04-15T13:32:43;11.60;;;9.40;;
11771;SDS011;12556;55.748;13.194;2023-04-15T13:35:09;13.57;;;10.67;;
11771;SDS011;12556;55.748;13.194;2023-04-15T13:37:36;10.53;;;9.10;;
11771;SDS011;12556;55.748;13.194;2023-04-15T13:40:06;14.20;;;9.40;;
11771;SDS011;12556;55.748;13.194;2023-04-15T13:42:33;11.27;;;9.73;;
11771;SDS011;12556;55.748;13.194;2023-04-15T13:45:00;11.73;;;10.07;;
11771;SDS011;12556;55.748;13.194;2023-04-15T13:47:27;11.20;;;9.33;;
11771;SDS011;12556;55.748;13.194;2023-04-15T13:49:54;10.70;;;9.07;;
11771;SDS011;12556;55.748;13.194;2023-04-15T13:52:21;11.03;;;9.93;;
11771;SDS011;12556;55.748;13.194;2023-04-15T13:54:48;12.47;;;9.40;;
11771;SDS011;12556;55.748;13.194;2023-04-15T13:57:16;9.97;;;8.90;;
11771;SDS011;12556;55.748;13.194;2023-04-15T13:59:43;9.60;;;8.60;;
11771;SDS011;12556;55.748;13.194;2023-04-15T14:02:10;10.07;;;8.33;;
11771;SDS011;12556;55.748;13.194;2023-04-15T14:04:37;10.60;;;8.43;;
11771;SDS011;12556;55.748;13.194;2023-04-15T14:07:03;9.37;;;8.33;;
11771;SDS011;12556;55.748;13.194;2023-04-15T14:09:30;10.80;;;8.20;;
11771;SDS011;12556;55.748;13.194;2023-04-15T14:11:57;12.10;;;8.27;;
11771;SDS011;12556;55.748;13.194;2023-04-15T14:14:26;9.70;;;7.97;;
11771;SDS011;12556;55.748;13.194;2023-04-15T14:16:54;10.60;;;8.37;;
11771;SDS011;12556;55.748;13.194;2023-04-15T14:19:21;8.77;;;7.53;;
11771;SDS011;12556;55.748;13.194;2023-04-15T14:21:48;9.17;;;8.10;;